sensor_id;sensor_type;location;lat;lon;timestamp;temperature;humidity
21090;DHT22;10703;51.020;6.128;2023-09-07T00:01:48;17.00;99.90
21090;DHT22;10703;51.020;6.128;2023-09-07T00:04:15;16.90;99.90
21090;DHT22;10703;51.020;6.128;2023-09-07T00:06:42;16.90;99.90
21090;DHT22;10703;51.020;6.128;2023-09-07T00:09:10;16.80;99.90
21090;DHT22;10703;51.020;6.128;2023-09-07T00:11:38;16.70;99.90
21090;DHT22;10703;51.020;6.128;2023-09-07T00:14:04;16.70;99.90
21090;DHT22;10703;51.020;6.128;2023-09-07T00:16:32;16.60;99.90
21090;DHT22;10703;51.020;6.128;2023-09-07T00:19:02;16.60;99.90
21090;DHT22;10703;51.020;6.128;2023-09-07T00:21:29;16.60;99.90
21090;DHT22;10703;51.020;6.128;2023-09-07T00:23:56;16.60;99.90
21090;DHT22;10703;51.020;6.128;2023-09-07T00:26:23;16.60;99.90
21090;DHT22;10703;51.020;6.128;2023-09-07T00:28:49;16.70;99.90
21090;DHT22;10703;51.020;6.128;2023-09-07T00:31:16;16.70;99.90
21090;DHT22;10703;51.020;6.128;2023-09-07T00:33:43;16.60;99.90
21090;DHT22;10703;51.020;6.128;2023-09-07T00:36:09;16.70;99.90
21090;DHT22;10703;51.020;6.128;2023-09-07T00:38:36;16.70;99.90
21090;DHT22;10703;51.020;6.128;2023-09-07T00:41:02;16.80;99.90
21090;DHT22;10703;51.020;6.128;2023-09-07T00:43:29;16.80;99.90
21090;DHT22;10703;51.020;6.128;2023-09-07T00:45:56;16.80;99.90
21090;DHT22;10703;51.020;6.128;2023-09-07T00:48:23;16.90;99.90
21090;DHT22;10703;51.020;6.128;2023-09-07T00:50:50;16.90;99.90
21090;DHT22;10703;51.020;6.128;2023-09-07T00:53:17;16.90;99.90
21090;DHT22;10703;51.020;6.128;2023-09-07T00:55:44;16.90;99.90
21090;DHT22;10703;51.020;6.128;2023-09-07T00:58:12;16.90;99.90
21090;DHT22;10703;51.020;6.128;2023-09-07T01:00:39;16.90;99.90
21090;DHT22;10703;51.020;6.128;2023-09-07T01:03:06;16.80;99.90
21090;DHT22;10703;51.020;6.128;2023-09-07T01:05:46;16.80;99.90
21090;DHT22;10703;51.020;6.128;2023-09-07T01:08:23;16.70;99.90
21090;DHT22;10703;51.020;6.128;2023-09-07T01:10:51;16.80;99.90
21090;DHT22;10703;51.020;6.128;2023-09-07T01:13:19;16.70;99.90
21090;DHT22;10703;51.020;6.128;2023-09-07T01:15:47;16.80;99.90
21090;DHT22;10703;51.020;6.128;2023-09-07T01:18:14;16.80;99.90
21090;DHT22;10703;51.020;6.128;2023-09-07T01:20:51;16.80;99.90
21090;DHT22;10703;51.020;6.128;2023-09-07T01:23:19;16.70;99.90
21090;DHT22;10703;51.020;6.128;2023-09-07T01:25:46;16.60;99.90
21090;DHT22;10703;51.020;6.128;2023-09-07T01:28:13;16.60;99.90
21090;DHT22;10703;51.020;6.128;2023-09-07T01:30:41;16.50;99.90
21090;DHT22;10703;51.020;6.128;2023-09-07T01:33:08;16.40;99.90
21090;DHT22;10703;51.020;6.128;2023-09-07T01:35:35;16.30;99.90
21090;DHT22;10703;51.020;6.128;2023-09-07T01:38:03;16.20;99.90
21090;DHT22;10703;51.020;6.128;2023-09-07T01:40:29;16.10;99.90
21090;DHT22;10703;51.020;6.128;2023-09-07T01:42:56;16.00;99.90
21090;DHT22;10703;51.020;6.128;2023-09-07T01:45:23;15.90;99.90
21090;DHT22;10703;51.020;6.128;2023-09-07T01:47:50;15.80;99.90
21090;DHT22;10703;51.020;6.128;2023-09-07T01:50:18;15.80;99.90
21090;DHT22;10703;51.020;6.128;2023-09-07T01:52:48;15.80;99.90
21090;DHT22;10703;51.020;6.128;2023-09-07T01:55:17;15.70;99.90
21090;DHT22;10703;51.020;6.128;2023-09-07T01:57:44;15.70;99.90
21090;DHT22;10703;51.020;6.128;2023-09-07T02:00:11;15.60;99.90
21090;DHT22;10703;51.020;6.128;2023-09-07T02:02:39;15.60;99.90
21090;DHT22;10703;51.020;6.128;2023-09-07T02:05:05;15.60;99.90
21090;DHT22;10703;51.020;6.128;2023-09-07T02:07:32;15.70;99.90
21090;DHT22;10703;51.020;6.128;2023-09-07T02:09:59;15.60;99.90
21090;DHT22;10703;51.020;6.128;2023-09-07T02:12:26;15.50;99.90
21090;DHT22;10703;51.020;6.128;2023-09-07T02:14:52;15.50;99.90
21090;DHT22;10703;51.020;6.128;2023-09-07T02:17:19;15.40;99.90
21090;DHT22;10703;51.020;6.128;2023-09-07T02:19:47;15.40;99.90
21090;DHT22;10703;51.020;6.128;2023-09-07T02:22:14;15.30;99.90
21090;DHT22;10703;51.020;6.128;2023-09-07T02:24:41;15.30;99.90
21090;DHT22;10703;51.020;6.128;2023-09-07T02:27:07;15.30;99.90
21090;DHT22;10703;51.020;6.128;2023-09-07T02:29:34;15.40;99.90
21090;DHT22;10703;51.020;6.128;2023-09-07T02:32:01;15.40;99.90
21090;DHT22;10703;51.020;6.128;2023-09-07T02:34:27;15.40;99.90
21090;DHT22;10703;51.020;6.128;2023-09-07T02:36:54;15.50;99.90
21090;DHT22;10703;51.020;6.128;2023-09-07T02:39:21;15.50;99.90
21090;DHT22;10703;51.020;6.128;2023-09-07T02:41:47;15.60;99.90
21090;DHT22;10703;51.020;6.128;2023-09-07T02:44:14;15.50;99.90
21090;DHT22;10703;51.020;6.128;2023-09-07T02:46:41;15.60;99.90
21090;DHT22;10703;51.020;6.128;2023-09-07T02:49:07;15.70;99.90
21090;DHT22;10703;51.020;6.128;2023-09-07T02:51:34;15.70;99.90
21090;DHT22;10703;51.020;6.128;2023-09-07T02:54:01;15.70;99.90
21090;DHT22;10703;51.020;6.128;2023-09-07T02:56:29;15.80;99.90
21090;DHT22;10703;51.020;6.128;2023-09-07T02:58:56;15.90;99.90
21090;DHT22;10703;51.020;6.128;2023-09-07T03:01:23;16.00;99.90
21090;DHT22;10703;51.020;6.128;2023-09-07T03:03:50;16.00;99.90
21090;DHT22;10703;51.020;6.128;2023-09-07T03:06:16;16.00;99.90
21090;DHT22;10703;51.020;6.128;2023-09-07T03:08:43;16.00;99.90
21090;DHT22;10703;51.020;6.128;2023-09-07T03:11:11;16.00;99.90
21090;DHT22;10703;51.020;6.128;2023-09-07T03:13:38;16.00;99.90
21090;DHT22;10703;51.020;6.128;2023-09-07T03:16:05;16.00;99.90
21090;DHT22;10703;51.020;6.128;2023-09-07T03:18:32;16.00;99.90
21090;DHT22;10703;51.020;6.128;2023-09-07T03:21:00;16.00;99.90
21090;DHT22;10703;51.020;6.128;2023-09-07T03:23:28;16.00;99.90
21090;DHT22;10703;51.020;6.128;2023-09-07T03:25:55;15.90;99.90
21090;DHT22;10703;51.020;6.128;2023-09-07T03:28:22;15.90;99.90
21090;DHT22;10703;51.020;6.128;2023-09-07T03:30:48;15.80;99.90
21090;DHT22;10703;51.020;6.128;2023-09-07T03:33:15;15.80;99.90
21090;DHT22;10703;51.020;6.128;2023-09-07T03:35:42;15.70;99.90
21090;DHT22;10703;51.020;6.128;2023-09-07T03:38:08;15.70;99.90
21090;DHT22;10703;51.020;6.128;2023-09-07T03:40:35;15.70;99.90
21090;DHT22;10703;51.020;6.128;2023-09-07T03:43:01;15.70;99.90
21090;DHT22;10703;51.020;6.128;2023-09-07T03:45:28;15.60;99.90
21090;DHT22;10703;51.020;6.128;2023-09-07T03:47:55;15.60;99.90
21090;DHT22;10703;51.020;6.128;2023-09-07T03:50:22;15.50;99.90
21090;DHT22;10703;51.020;6.128;2023-09-07T03:52:49;15.50;99.90
21090;DHT22;10703;51.020;6.128;2023-09-07T03:55:16;15.40;99.90
21090;DHT22;10703;51.020;6.128;2023-09-07T03:57:42;15.40;99.90
21090;DHT22;10703;51.020;6.128;2023-09-07T04:00:10;15.40;99.90
21090;DHT22;10703;51.020;6.128;2023-09-07T04:02:36;15.40;99.90
21090;DHT22;10703;51.020;6.128;2023-09-07T04:05:03;15.40;99.90
21090;DHT22;10703;51.020;6.128;2023-09-07T04:07:33;15.40;99.90
21090;DHT22;10703;51.020;6.128;2023-09-07T04:09:59;15.30;99.90
21090;DHT22;10703;51.020;6.128;2023-09-07T04:12:26;15.40;99.90
21090;DHT22;10703;51.020;6.128;2023-09-07T04:14:53;15.30;99.90
21090;DHT22;10703;51.020;6.128;2023-09-07T04:17:20;15.40;99.90
21090;DHT22;10703;51.020;6.128;2023-09-07T04:19:48;15.30;99.90
21090;DHT22;10703;51.020;6.128;2023-09-07T04:22:14;15.30;99.90
21090;DHT22;10703;51.020;6.128;2023-09-07T04:24:41;15.30;99.90
21090;DHT22;10703;51.020;6.128;2023-09-07T04:27:08;15.30;99.90
21090;DHT22;10703;51.020;6.128;2023-09-07T04:29:34;15.30;99.90
21090;DHT22;10703;51.020;6.128;2023-09-07T04:32:01;15.30;99.90
21090;DHT22;10703;51.020;6.128;2023-09-07T04:34:28;15.20;99.90
21090;DHT22;10703;51.020;6.128;2023-09-07T04:36:55;15.20;99.90
21090;DHT22;10703;51.020;6.128;2023-09-07T04:39:21;15.20;99.90
21090;DHT22;10703;51.020;6.128;2023-09-07T04:41:48;15.20;99.90
21090;DHT22;10703;51.020;6.128;2023-09-07T04:44:15;15.20;99.90
21090;DHT22;10703;51.020;6.128;2023-09-07T04:46:41;15.30;99.90
21090;DHT22;10703;51.020;6.128;2023-09-07T04:49:08;15.30;99.90
21090;DHT22;10703;51.020;6.128;2023-09-07T04:51:35;15.30;99.90
21090;DHT22;10703;51.020;6.128;2023-09-07T04:54:01;15.40;99.90
21090;DHT22;10703;51.020;6.128;2023-09-07T04:56:28;15.40;99.90
21090;DHT22;10703;51.020;6.128;2023-09-07T04:58:55;15.50;99.90
21090;DHT22;10703;51.020;6.128;2023-09-07T05:01:22;15.60;99.90
21090;DHT22;10703;51.020;6.128;2023-09-07T05:03:49;15.70;99.90
21090;DHT22;10703;51.020;6.128;2023-09-07T05:06:17;15.70;99.90
21090;DHT22;10703;51.020;6.128;2023-09-07T05:08:44;15.80;99.90
21090;DHT22;10703;51.020;6.128;2023-09-07T05:11:11;15.80;99.90
21090;DHT22;10703;51.020;6.128;2023-09-07T05:13:37;15.90;99.90
21090;DHT22;10703;51.020;6.128;2023-09-07T05:16:04;15.90;99.90
21090;DHT22;10703;51.020;6.128;2023-09-07T05:18:31;15.90;99.90
21090;DHT22;10703;51.020;6.128;2023-09-07T05:20:58;16.00;99.90
21090;DHT22;10703;51.020;6.128;2023-09-07T05:23:25;16.00;99.90
21090;DHT22;10703;51.020;6.128;2023-09-07T05:25:54;16.00;99.90
21090;DHT22;10703;51.020;6.128;2023-09-07T05:28:22;16.00;99.90
21090;DHT22;10703;51.020;6.128;2023-09-07T05:30:49;16.10;99.90
21090;DHT22;10703;51.020;6.128;2023-09-07T05:33:16;16.20;99.90
21090;DHT22;10703;51.020;6.128;2023-09-07T05:35:43;16.20;99.90
21090;DHT22;10703;51.020;6.128;2023-09-07T05:38:12;16.30;99.90
21090;DHT22;10703;51.020;6.128;2023-09-07T05:40:41;16.30;99.90
21090;DHT22;10703;51.020;6.128;2023-09-07T05:43:07;16.40;99.90
21090;DHT22;10703;51.020;6.128;2023-09-07T05:45:36;16.40;99.90
21090;DHT22;10703;51.020;6.128;2023-09-07T05:48:04;16.50;99.90
21090;DHT22;10703;51.020;6.128;2023-09-07T05:50:35;16.60;99.90
21090;DHT22;10703;51.020;6.128;2023-09-07T05:53:02;16.60;99.90
21090;DHT22;10703;51.020;6.128;2023-09-07T05:55:30;16.70;99.90
21090;DHT22;10703;51.020;6.128;2023-09-07T05:57:57;16.80;99.90
21090;DHT22;10703;51.020;6.128;2023-09-07T06:00:24;16.80;99.90
21090;DHT22;10703;51.020;6.128;2023-09-07T06:02:52;16.90;99.90
21090;DHT22;10703;51.020;6.128;2023-09-07T06:05:19;17.10;99.90
21090;DHT22;10703;51.020;6.128;2023-09-07T06:07:45;17.00;99.90
21090;DHT22;10703;51.020;6.128;2023-09-07T06:10:12;17.10;99.90
21090;DHT22;10703;51.020;6.128;2023-09-07T06:12:39;17.10;99.90
21090;DHT22;10703;51.020;6.128;2023-09-07T06:15:07;17.30;99.90
21090;DHT22;10703;51.020;6.128;2023-09-07T06:17:33;17.40;99.90
21090;DHT22;10703;51.020;6.128;2023-09-07T06:20:00;17.50;99.90
21090;DHT22;10703;51.020;6.128;2023-09-07T06:22:27;17.60;99.90
21090;DHT22;10703;51.020;6.128;2023-09-07T06:24:53;17.60;99.90
21090;DHT22;10703;51.020;6.128;2023-09-07T06:27:20;17.80;99.90
21090;DHT22;10703;51.020;6.128;2023-09-07T06:29:47;17.90;99.90
21090;DHT22;10703;51.020;6.128;2023-09-07T06:32:13;18.00;99.90
21090;DHT22;10703;51.020;6.128;2023-09-07T06:34:40;18.40;99.90
21090;DHT22;10703;51.020;6.128;2023-09-07T06:37:07;18.10;99.90
21090;DHT22;10703;51.020;6.128;2023-09-07T06:39:34;18.10;99.90
21090;DHT22;10703;51.020;6.128;2023-09-07T06:42:00;18.20;99.90
21090;DHT22;10703;51.020;6.128;2023-09-07T06:44:27;18.30;99.90
21090;DHT22;10703;51.020;6.128;2023-09-07T06:46:54;18.40;99.90
21090;DHT22;10703;51.020;6.128;2023-09-07T06:49:20;18.40;99.90
21090;DHT22;10703;51.020;6.128;2023-09-07T06:51:47;18.50;99.90
21090;DHT22;10703;51.020;6.128;2023-09-07T06:54:14;18.60;99.90
21090;DHT22;10703;51.020;6.128;2023-09-07T06:56:41;18.80;99.90
21090;DHT22;10703;51.020;6.128;2023-09-07T06:59:07;18.90;99.90
21090;DHT22;10703;51.020;6.128;2023-09-07T07:01:34;19.00;99.90
21090;DHT22;10703;51.020;6.128;2023-09-07T07:04:03;19.10;99.90
21090;DHT22;10703;51.020;6.128;2023-09-07T07:06:30;19.20;99.90
21090;DHT22;10703;51.020;6.128;2023-09-07T07:08:56;19.30;99.90
21090;DHT22;10703;51.020;6.128;2023-09-07T07:11:23;19.40;99.90
21090;DHT22;10703;51.020;6.128;2023-09-07T07:13:50;19.80;99.90
21090;DHT22;10703;51.020;6.128;2023-09-07T07:16:17;20.10;99.90
21090;DHT22;10703;51.020;6.128;2023-09-07T07:18:44;20.60;99.90
21090;DHT22;10703;51.020;6.128;2023-09-07T07:21:28;20.90;99.90
21090;DHT22;10703;51.020;6.128;2023-09-07T07:23:55;21.60;99.90
21090;DHT22;10703;51.020;6.128;2023-09-07T07:26:22;22.00;99.90
21090;DHT22;10703;51.020;6.128;2023-09-07T07:28:52;22.20;99.90
21090;DHT22;10703;51.020;6.128;2023-09-07T07:31:36;22.40;99.90
21090;DHT22;10703;51.020;6.128;2023-09-07T07:34:02;22.50;99.90
21090;DHT22;10703;51.020;6.128;2023-09-07T07:36:29;23.20;99.90
21090;DHT22;10703;51.020;6.128;2023-09-07T07:38:59;23.30;99.90
21090;DHT22;10703;51.020;6.128;2023-09-07T07:41:26;24.10;99.90
21090;DHT22;10703;51.020;6.128;2023-09-07T07:43:52;24.20;99.90
21090;DHT22;10703;51.020;6.128;2023-09-07T07:46:19;24.40;99.90
21090;DHT22;10703;51.020;6.128;2023-09-07T07:48:46;24.80;99.90
21090;DHT22;10703;51.020;6.128;2023-09-07T07:51:15;25.50;99.90
21090;DHT22;10703;51.020;6.128;2023-09-07T07:53:42;25.30;99.90
21090;DHT22;10703;51.020;6.128;2023-09-07T07:56:16;25.10;99.90
21090;DHT22;10703;51.020;6.128;2023-09-07T07:58:43;25.60;99.90
21090;DHT22;10703;51.020;6.128;2023-09-07T08:01:15;25.40;99.90
21090;DHT22;10703;51.020;6.128;2023-09-07T08:03:42;25.20;99.90
21090;DHT22;10703;51.020;6.128;2023-09-07T08:06:10;25.20;99.90
21090;DHT22;10703;51.020;6.128;2023-09-07T08:08:39;25.90;99.90
21090;DHT22;10703;51.020;6.128;2023-09-07T08:11:05;25.80;99.90
21090;DHT22;10703;51.020;6.128;2023-09-07T08:13:35;27.00;99.90
21090;DHT22;10703;51.020;6.128;2023-09-07T08:16:02;27.80;99.90
21090;DHT22;10703;51.020;6.128;2023-09-07T08:18:31;28.20;99.90
21090;DHT22;10703;51.020;6.128;2023-09-07T08:20:59;28.30;99.90
21090;DHT22;10703;51.020;6.128;2023-09-07T08:23:26;28.10;99.90
21090;DHT22;10703;51.020;6.128;2023-09-07T08:25:52;29.10;99.90
21090;DHT22;10703;51.020;6.128;2023-09-07T08:28:22;28.10;99.90
21090;DHT22;10703;51.020;6.128;2023-09-07T08:30:50;27.70;99.90
21090;DHT22;10703;51.020;6.128;2023-09-07T08:33:21;28.20;99.90
21090;DHT22;10703;51.020;6.128;2023-09-07T08:35:53;28.70;99.90
21090;DHT22;10703;51.020;6.128;2023-09-07T08:38:21;28.60;99.90
21090;DHT22;10703;51.020;6.128;2023-09-07T08:40:53;28.40;99.90
21090;DHT22;10703;51.020;6.128;2023-09-07T08:43:21;28.20;99.90
21090;DHT22;10703;51.020;6.128;2023-09-07T08:45:55;28.00;99.90
21090;DHT22;10703;51.020;6.128;2023-09-07T08:48:27;27.90;99.90
21090;DHT22;10703;51.020;6.128;2023-09-07T08:50:56;27.80;99.90
21090;DHT22;10703;51.020;6.128;2023-09-07T08:53:23;27.90;99.90
21090;DHT22;10703;51.020;6.128;2023-09-07T08:55:51;28.20;99.90
21090;DHT22;10703;51.020;6.128;2023-09-07T08:58:18;28.70;99.90
21090;DHT22;10703;51.020;6.128;2023-09-07T09:00:44;28.90;99.90
21090;DHT22;10703;51.020;6.128;2023-09-07T09:03:12;28.70;99.50
21090;DHT22;10703;51.020;6.128;2023-09-07T09:05:40;28.80;99.90
21090;DHT22;10703;51.020;6.128;2023-09-07T09:08:07;29.40;99.10
21090;DHT22;10703;51.020;6.128;2023-09-07T09:10:40;29.50;97.70
21090;DHT22;10703;51.020;6.128;2023-09-07T09:13:08;29.90;97.50
21090;DHT22;10703;51.020;6.128;2023-09-07T09:15:35;30.20;96.90
21090;DHT22;10703;51.020;6.128;2023-09-07T09:18:09;30.60;97.20
21090;DHT22;10703;51.020;6.128;2023-09-07T09:20:38;30.70;97.10
21090;DHT22;10703;51.020;6.128;2023-09-07T09:23:05;30.60;96.50
21090;DHT22;10703;51.020;6.128;2023-09-07T09:25:33;30.50;96.60
21090;DHT22;10703;51.020;6.128;2023-09-07T09:28:00;30.50;95.90
21090;DHT22;10703;51.020;6.128;2023-09-07T09:30:27;30.30;96.70
21090;DHT22;10703;51.020;6.128;2023-09-07T09:32:54;30.70;97.30
21090;DHT22;10703;51.020;6.128;2023-09-07T09:35:21;31.20;96.40
21090;DHT22;10703;51.020;6.128;2023-09-07T09:37:49;31.50;95.60
21090;DHT22;10703;51.020;6.128;2023-09-07T09:40:16;31.10;95.10
21090;DHT22;10703;51.020;6.128;2023-09-07T09:42:44;31.00;95.90
21090;DHT22;10703;51.020;6.128;2023-09-07T09:45:11;30.60;95.50
21090;DHT22;10703;51.020;6.128;2023-09-07T09:47:40;30.90;95.80
21090;DHT22;10703;51.020;6.128;2023-09-07T09:50:11;31.10;95.80
21090;DHT22;10703;51.020;6.128;2023-09-07T09:52:38;31.10;96.10
21090;DHT22;10703;51.020;6.128;2023-09-07T09:55:08;31.00;96.20
21090;DHT22;10703;51.020;6.128;2023-09-07T09:57:39;31.10;96.00
21090;DHT22;10703;51.020;6.128;2023-09-07T10:00:07;31.30;95.90
21090;DHT22;10703;51.020;6.128;2023-09-07T10:03:02;31.50;95.10
21090;DHT22;10703;51.020;6.128;2023-09-07T10:05:31;31.60;95.80
21090;DHT22;10703;51.020;6.128;2023-09-07T10:08:08;32.80;95.00
21090;DHT22;10703;51.020;6.128;2023-09-07T10:10:36;33.00;94.30
21090;DHT22;10703;51.020;6.128;2023-09-07T10:13:04;32.70;94.90
21090;DHT22;10703;51.020;6.128;2023-09-07T10:15:31;32.00;94.50
21090;DHT22;10703;51.020;6.128;2023-09-07T10:18:13;33.10;94.10
21090;DHT22;10703;51.020;6.128;2023-09-07T10:20:56;33.60;94.30
21090;DHT22;10703;51.020;6.128;2023-09-07T10:23:39;33.00;93.80
21090;DHT22;10703;51.020;6.128;2023-09-07T10:26:14;33.40;94.00
21090;DHT22;10703;51.020;6.128;2023-09-07T10:28:43;33.90;93.70
21090;DHT22;10703;51.020;6.128;2023-09-07T10:31:15;33.00;93.80
21090;DHT22;10703;51.020;6.128;2023-09-07T10:33:42;33.40;93.40
21090;DHT22;10703;51.020;6.128;2023-09-07T10:36:20;32.90;94.10
21090;DHT22;10703;51.020;6.128;2023-09-07T10:38:47;32.80;93.90
21090;DHT22;10703;51.020;6.128;2023-09-07T10:41:14;33.20;93.20
21090;DHT22;10703;51.020;6.128;2023-09-07T10:43:49;33.70;92.70
21090;DHT22;10703;51.020;6.128;2023-09-07T10:46:19;34.70;92.90
21090;DHT22;10703;51.020;6.128;2023-09-07T10:48:51;33.60;92.40
21090;DHT22;10703;51.020;6.128;2023-09-07T10:51:21;34.00;92.80
21090;DHT22;10703;51.020;6.128;2023-09-07T10:53:48;34.70;92.60
21090;DHT22;10703;51.020;6.128;2023-09-07T10:56:15;33.50;92.80
21090;DHT22;10703;51.020;6.128;2023-09-07T10:58:42;33.60;92.60
21090;DHT22;10703;51.020;6.128;2023-09-07T11:01:10;34.00;93.00
21090;DHT22;10703;51.020;6.128;2023-09-07T11:03:37;34.30;92.90
21090;DHT22;10703;51.020;6.128;2023-09-07T11:06:09;35.50;91.80
21090;DHT22;10703;51.020;6.128;2023-09-07T11:08:36;35.40;91.40
21090;DHT22;10703;51.020;6.128;2023-09-07T11:11:03;34.80;92.30
21090;DHT22;10703;51.020;6.128;2023-09-07T11:13:30;34.00;92.90
21090;DHT22;10703;51.020;6.128;2023-09-07T11:15:58;34.70;92.30
21090;DHT22;10703;51.020;6.128;2023-09-07T11:18:26;34.40;92.90
21090;DHT22;10703;51.020;6.128;2023-09-07T11:20:53;34.00;91.90
21090;DHT22;10703;51.020;6.128;2023-09-07T11:23:21;33.90;92.00
21090;DHT22;10703;51.020;6.128;2023-09-07T11:25:49;35.10;91.80
21090;DHT22;10703;51.020;6.128;2023-09-07T11:28:19;35.70;90.80
21090;DHT22;10703;51.020;6.128;2023-09-07T11:30:53;34.80;90.60
21090;DHT22;10703;51.020;6.128;2023-09-07T11:33:21;34.80;91.70
21090;DHT22;10703;51.020;6.128;2023-09-07T11:35:48;34.80;91.30
21090;DHT22;10703;51.020;6.128;2023-09-07T11:38:16;35.30;91.00
21090;DHT22;10703;51.020;6.128;2023-09-07T11:40:44;35.20;91.10
21090;DHT22;10703;51.020;6.128;2023-09-07T11:43:17;35.70;90.70
21090;DHT22;10703;51.020;6.128;2023-09-07T11:45:46;35.20;90.30
21090;DHT22;10703;51.020;6.128;2023-09-07T11:48:13;35.90;90.10
21090;DHT22;10703;51.020;6.128;2023-09-07T11:50:40;35.80;90.20
21090;DHT22;10703;51.020;6.128;2023-09-07T11:53:07;35.50;89.80
21090;DHT22;10703;51.020;6.128;2023-09-07T11:55:35;35.70;90.30
21090;DHT22;10703;51.020;6.128;2023-09-07T11:58:03;35.40;89.80
21090;DHT22;10703;51.020;6.128;2023-09-07T12:00:30;36.20;89.60
21090;DHT22;10703;51.020;6.128;2023-09-07T12:02:58;35.70;89.90
21090;DHT22;10703;51.020;6.128;2023-09-07T12:05:25;35.40;89.60
21090;DHT22;10703;51.020;6.128;2023-09-07T12:07:52;35.30;89.60
21090;DHT22;10703;51.020;6.128;2023-09-07T12:10:19;35.70;89.00
21090;DHT22;10703;51.020;6.128;2023-09-07T12:12:46;36.00;89.00
21090;DHT22;10703;51.020;6.128;2023-09-07T12:15:12;36.00;89.40
21090;DHT22;10703;51.020;6.128;2023-09-07T12:17:40;36.60;88.00
21090;DHT22;10703;51.020;6.128;2023-09-07T12:20:07;36.50;88.00
21090;DHT22;10703;51.020;6.128;2023-09-07T12:22:37;35.90;88.20
21090;DHT22;10703;51.020;6.128;2023-09-07T12:25:05;35.70;89.20
21090;DHT22;10703;51.020;6.128;2023-09-07T12:27:41;35.90;90.20
21090;DHT22;10703;51.020;6.128;2023-09-07T12:30:19;36.70;88.00
21090;DHT22;10703;51.020;6.128;2023-09-07T12:32:47;36.90;87.40
21090;DHT22;10703;51.020;6.128;2023-09-07T12:35:14;36.40;87.80
21090;DHT22;10703;51.020;6.128;2023-09-07T12:37:41;37.60;87.50
21090;DHT22;10703;51.020;6.128;2023-09-07T12:40:08;37.60;87.60
21090;DHT22;10703;51.020;6.128;2023-09-07T12:42:40;36.00;87.20
21090;DHT22;10703;51.020;6.128;2023-09-07T12:45:08;35.70;87.90
21090;DHT22;10703;51.020;6.128;2023-09-07T12:47:36;36.30;88.00
21090;DHT22;10703;51.020;6.128;2023-09-07T12:50:03;36.70;87.10
21090;DHT22;10703;51.020;6.128;2023-09-07T12:52:32;37.00;87.30
21090;DHT22;10703;51.020;6.128;2023-09-07T12:55:01;37.10;86.00
21090;DHT22;10703;51.020;6.128;2023-09-07T12:57:28;36.90;87.60
21090;DHT22;10703;51.020;6.128;2023-09-07T12:59:55;37.10;85.80
21090;DHT22;10703;51.020;6.128;2023-09-07T13:02:21;37.30;84.90
21090;DHT22;10703;51.020;6.128;2023-09-07T13:04:48;38.30;84.20
21090;DHT22;10703;51.020;6.128;2023-09-07T13:07:15;37.80;85.30
21090;DHT22;10703;51.020;6.128;2023-09-07T13:09:43;37.00;85.60
21090;DHT22;10703;51.020;6.128;2023-09-07T13:12:11;36.90;86.00
21090;DHT22;10703;51.020;6.128;2023-09-07T13:14:37;37.90;86.20
21090;DHT22;10703;51.020;6.128;2023-09-07T13:17:04;37.30;84.50
21090;DHT22;10703;51.020;6.128;2023-09-07T13:19:31;36.60;85.50
21090;DHT22;10703;51.020;6.128;2023-09-07T13:21:58;35.60;86.90
21090;DHT22;10703;51.020;6.128;2023-09-07T13:24:25;35.60;87.30
21090;DHT22;10703;51.020;6.128;2023-09-07T13:26:51;35.70;87.50
21090;DHT22;10703;51.020;6.128;2023-09-07T13:29:18;36.20;86.90
21090;DHT22;10703;51.020;6.128;2023-09-07T13:31:45;36.00;86.00
21090;DHT22;10703;51.020;6.128;2023-09-07T13:34:12;36.20;86.10
21090;DHT22;10703;51.020;6.128;2023-09-07T13:36:38;36.10;85.90
21090;DHT22;10703;51.020;6.128;2023-09-07T13:39:05;36.50;85.40
21090;DHT22;10703;51.020;6.128;2023-09-07T13:41:32;36.50;85.50
21090;DHT22;10703;51.020;6.128;2023-09-07T13:43:58;36.20;85.80
21090;DHT22;10703;51.020;6.128;2023-09-07T13:46:25;37.50;84.90
21090;DHT22;10703;51.020;6.128;2023-09-07T13:48:52;36.90;84.20
21090;DHT22;10703;51.020;6.128;2023-09-07T13:51:19;36.00;85.20
21090;DHT22;10703;51.020;6.128;2023-09-07T13:53:46;37.70;84.70
21090;DHT22;10703;51.020;6.128;2023-09-07T13:56:12;36.90;83.10
21090;DHT22;10703;51.020;6.128;2023-09-07T13:58:39;37.30;82.60
21090;DHT22;10703;51.020;6.128;2023-09-07T14:01:06;37.20;83.50
21090;DHT22;10703;51.020;6.128;2023-09-07T14:03:33;38.10;82.40
21090;DHT22;10703;51.020;6.128;2023-09-07T14:06:02;37.30;83.40
21090;DHT22;10703;51.020;6.128;2023-09-07T14:08:29;36.90;83.20
21090;DHT22;10703;51.020;6.128;2023-09-07T14:10:57;38.20;83.10
21090;DHT22;10703;51.020;6.128;2023-09-07T14:13:26;38.00;82.60
21090;DHT22;10703;51.020;6.128;2023-09-07T14:15:53;38.80;82.70
21090;DHT22;10703;51.020;6.128;2023-09-07T14:18:19;39.20;80.00
21090;DHT22;10703;51.020;6.128;2023-09-07T14:20:46;38.80;79.80
21090;DHT22;10703;51.020;6.128;2023-09-07T14:23:13;39.40;80.50
21090;DHT22;10703;51.020;6.128;2023-09-07T14:25:39;38.60;81.30
21090;DHT22;10703;51.020;6.128;2023-09-07T14:28:08;39.00;80.70
21090;DHT22;10703;51.020;6.128;2023-09-07T14:30:35;38.20;81.10
21090;DHT22;10703;51.020;6.128;2023-09-07T14:33:01;37.60;80.30
21090;DHT22;10703;51.020;6.128;2023-09-07T14:35:28;36.80;80.30
21090;DHT22;10703;51.020;6.128;2023-09-07T14:37:54;37.30;79.40
21090;DHT22;10703;51.020;6.128;2023-09-07T14:40:21;37.10;79.60
21090;DHT22;10703;51.020;6.128;2023-09-07T14:42:50;37.60;79.00
21090;DHT22;10703;51.020;6.128;2023-09-07T14:45:17;38.00;80.80
21090;DHT22;10703;51.020;6.128;2023-09-07T14:47:43;37.70;79.80
21090;DHT22;10703;51.020;6.128;2023-09-07T14:50:10;36.80;78.40
21090;DHT22;10703;51.020;6.128;2023-09-07T14:52:37;37.10;79.40
21090;DHT22;10703;51.020;6.128;2023-09-07T14:55:07;37.90;79.80
21090;DHT22;10703;51.020;6.128;2023-09-07T14:57:34;38.90;77.20
21090;DHT22;10703;51.020;6.128;2023-09-07T15:00:01;38.40;77.50
21090;DHT22;10703;51.020;6.128;2023-09-07T15:02:29;37.40;77.90
21090;DHT22;10703;51.020;6.128;2023-09-07T15:04:56;36.80;78.60
21090;DHT22;10703;51.020;6.128;2023-09-07T15:07:23;36.70;77.40
21090;DHT22;10703;51.020;6.128;2023-09-07T15:09:50;36.10;78.80
21090;DHT22;10703;51.020;6.128;2023-09-07T15:12:16;36.10;78.90
21090;DHT22;10703;51.020;6.128;2023-09-07T15:14:43;35.60;79.10
21090;DHT22;10703;51.020;6.128;2023-09-07T15:17:11;35.60;79.10
21090;DHT22;10703;51.020;6.128;2023-09-07T15:19:40;36.30;78.90
21090;DHT22;10703;51.020;6.128;2023-09-07T15:22:06;35.80;78.10
21090;DHT22;10703;51.020;6.128;2023-09-07T15:24:33;35.60;78.80
21090;DHT22;10703;51.020;6.128;2023-09-07T15:27:12;35.70;78.00
21090;DHT22;10703;51.020;6.128;2023-09-07T15:29:40;36.00;78.40
21090;DHT22;10703;51.020;6.128;2023-09-07T15:32:07;35.60;78.80
21090;DHT22;10703;51.020;6.128;2023-09-07T15:34:34;35.30;79.20